Saint-Joseph-De-Beauce, Canada
Current Conditions -  °F | °C
As of 2:00 PM on Tuesday 21 Oct 2014 (Local Time) from CYQB Reporting Station
Broken Clouds Broken Clouds  
Wind Chill: 39°   Ceiling: 6200
Heat Index: 45°   Visibility: 30mi
Dew Point: 34°   Wind: 10mph
Humidity: 66%   Direction: 80°E
Pressure: 30.11"   Gusts: 17mph
Location:  46.3°N, 70.87°W
Report Text: CYQB 211800Z 08009G15KT 30SM BKN062 BKN180 07/01 A3011 RMK SC6CI1 SLP200
Loading
Personal Weather Stations






























Interactive Weather Map
Tropical Storm Tracking
New forecast layout! Learn more

10-Day Weather Forecast

Advertisements
Track Severe Weather on mobile